Time;durP1;ratioP1;P1;durP2;ratioP2;P2;SDS_P1;SDS_P2;PMS_P1;PMS_P2;Temp;Humidity;BMP_temperature;BMP_pressure;BME280_temperature;BME280_humidity;BME280_pressure;Samples;Min_cycle;Max_cycle;Signal;HPM_P1;HPM_P2
2022/12/25 00:01:19;;;;;;;11.18;3.78;;;9.00;93.60;;;;;;5070675;28;20394;-77
2022/12/25 00:03:46;;;;;;;14.27;5.15;;;9.00;94.30;;;;;;5071518;28;20420;-77
2022/12/25 00:06:12;;;;;;;12.48;5.32;;;9.00;93.80;;;;;;5070219;28;20032;-77
2022/12/25 00:08:39;;;;;;;6.45;3.75;;;9.10;93.30;;;;;;5070279;28;20029;-77
2022/12/25 00:11:10;;;;;;;10.60;3.67;;;9.10;93.20;;;;;;5070632;28;20044;-77
2022/12/25 00:13:37;;;;;;;7.85;3.13;;;9.10;92.90;;;;;;5071399;28;20044;-77
2022/12/25 00:16:09;;;;;;;10.15;3.50;;;9.10;91.50;;;;;;5070246;28;20049;-77
2022/12/25 00:18:35;;;;;;;12.27;3.67;;;9.10;90.50;;;;;;5070664;28;20028;-77
2022/12/25 00:21:04;;;;;;;9.88;3.30;;;9.20;87.40;;;;;;5070548;28;20366;-77
2022/12/25 00:23:32;;;;;;;6.15;3.00;;;9.20;84.70;;;;;;5071322;28;20561;-77
2022/12/25 00:25:58;;;;;;;9.20;3.67;;;9.20;83.00;;;;;;5073779;28;20424;-76
2022/12/25 00:28:27;;;;;;;10.07;3.67;;;9.20;80.80;;;;;;5071212;28;20032;-75
2022/12/25 00:30:53;;;;;;;7.40;2.70;;;9.20;78.70;;;;;;5069093;28;20024;-77
2022/12/25 00:33:19;;;;;;;9.65;3.70;;;9.20;77.10;;;;;;5073984;28;20059;-77
2022/12/25 00:35:57;;;;;;;12.23;3.25;;;9.20;77.90;;;;;;5073931;28;20036;-77
2022/12/25 00:38:23;;;;;;;7.63;2.40;;;9.10;79.50;;;;;;5073209;28;20397;-77
2022/12/25 00:40:49;;;;;;;7.18;2.92;;;9.10;79.90;;;;;;5073600;28;20032;-77
2022/12/25 00:43:16;;;;;;;7.57;3.20;;;9.10;80.60;;;;;;5073595;28;20036;-78
2022/12/25 00:45:42;;;;;;;10.13;3.85;;;9.10;81.50;;;;;;5074581;28;20033;-77
2022/12/25 00:48:08;;;;;;;5.88;2.30;;;9.10;82.20;;;;;;5073020;28;20048;-77
2022/12/25 00:50:39;;;;;;;10.05;2.72;;;9.20;81.80;;;;;;5072759;28;20112;-77
2022/12/25 00:53:05;;;;;;;8.25;2.90;;;9.10;81.80;;;;;;5055280;28;20043;-77
2022/12/25 00:55:31;;;;;;;9.13;2.53;;;9.10;82.20;;;;;;5074064;28;20035;-77
2022/12/25 00:57:58;;;;;;;4.85;2.80;;;9.20;81.10;;;;;;5073747;28;20389;-75
2022/12/25 01:00:24;;;;;;;6.70;2.38;;;9.30;78.90;;;;;;5072925;28;20029;-76
2022/12/25 01:02:50;;;;;;;7.10;2.83;;;9.20;78.10;;;;;;5074239;28;20374;-76
2022/12/25 01:05:16;;;;;;;5.55;2.50;;;9.20;78.10;;;;;;5072739;28;20047;-77
2022/12/25 01:07:42;;;;;;;5.20;2.10;;;9.20;79.60;;;;;;5073978;28;20040;-77
2022/12/25 01:10:21;;;;;;;6.72;2.28;;;9.20;79.50;;;;;;5071907;28;20047;-77
2022/12/25 01:12:49;;;;;;;8.25;2.03;;;9.20;78.80;;;;;;5073988;28;20041;-77
2022/12/25 01:15:15;;;;;;;4.00;2.05;;;9.30;77.20;;;;;;5073077;28;20040;-77
2022/12/25 01:17:42;;;;;;;6.18;2.60;;;9.30;74.20;;;;;;5073867;28;20436;-77
2022/12/25 01:20:09;;;;;;;5.38;2.10;;;9.30;72.00;;;;;;5071846;28;20033;-77
2022/12/25 01:22:36;;;;;;;6.95;2.25;;;9.40;69.80;;;;;;5073718;28;20412;-77
2022/12/25 01:25:03;;;;;;;6.38;2.05;;;9.30;68.60;;;;;;5072904;28;20035;-77
2022/12/25 01:27:30;;;;;;;8.88;3.13;;;9.30;67.30;;;;;;5056146;28;20033;-77
2022/12/25 01:29:57;;;;;;;5.28;2.60;;;9.40;66.50;;;;;;5072776;28;20032;-76
2022/12/25 01:32:23;;;;;;;5.32;2.83;;;9.30;65.40;;;;;;5072111;28;20040;-77
2022/12/25 01:34:50;;;;;;;5.35;2.88;;;9.40;64.10;;;;;;5072140;28;20038;-77
2022/12/25 01:37:16;;;;;;;7.35;2.72;;;9.40;63.10;;;;;;5072374;28;20461;-77
2022/12/25 01:39:42;;;;;;;6.47;3.22;;;9.30;62.70;;;;;;5072377;28;20362;-76
2022/12/25 01:42:20;;;;;;;5.25;2.65;;;9.30;64.80;;;;;;5073578;28;20028;-77
2022/12/25 01:44:47;;;;;;;5.93;2.72;;;9.20;67.80;;;;;;5082513;28;20035;-77
2022/12/25 01:47:15;;;;;;;8.45;3.65;;;9.20;70.70;;;;;;5076824;28;20035;-77
2022/12/25 01:49:44;;;;;;;6.68;3.15;;;9.20;72.00;;;;;;5072667;28;20036;-77
2022/12/25 01:52:20;;;;;;;8.10;3.60;;;9.20;69.90;;;;;;5072836;28;20035;-77
2022/12/25 01:54:59;;;;;;;5.90;2.72;;;9.20;68.10;;;;;;5074482;28;20067;-77
2022/12/25 01:57:30;;;;;;;5.75;2.50;;;9.20;67.20;;;;;;5055851;28;20029;-76
2022/12/25 01:59:58;;;;;;;5.55;2.88;;;9.20;66.30;;;;;;5072673;28;20036;-78
2022/12/25 02:02:24;;;;;;;5.03;2.10;;;9.20;64.50;;;;;;5072777;28;20028;-77
2022/12/25 02:05:00;;;;;;;4.47;1.92;;;9.30;62.20;;;;;;5073041;28;20040;-76
2022/12/25 02:07:28;;;;;;;8.48;2.33;;;9.30;59.70;;;;;;5072232;28;20052;-76
2022/12/25 02:09:54;;;;;;;6.25;2.30;;;9.30;58.10;;;;;;5071833;28;20040;-77
2022/12/25 02:12:31;;;;;;;5.05;2.40;;;9.30;57.10;;;;;;5071440;28;20049;-77
2022/12/25 02:15:11;;;;;;;6.72;2.78;;;9.30;56.80;;;;;;5073234;28;20036;-77
2022/12/25 02:17:43;;;;;;;5.88;2.47;;;9.30;56.60;;;;;;5072917;28;20055;-76
2022/12/25 02:20:18;;;;;;;9.20;2.60;;;9.20;57.70;;;;;;5065164;28;20036;-76
2022/12/25 02:23:10;;;;;;;3.85;1.90;;;9.20;59.20;;;;;;5073007;28;20028;-77
2022/12/25 02:25:39;;;;;;;7.03;2.42;;;9.20;61.80;;;;;;5072772;28;20032;-76
2022/12/25 02:28:14;;;;;;;8.68;3.22;;;9.10;63.50;;;;;;5072035;28;20040;-77
2022/12/25 02:30:54;;;;;;;5.53;2.40;;;9.10;65.20;;;;;;5072301;28;20035;-77
2022/12/25 02:36:21;;;;;;;5.10;2.28;;;9.20;65.80;;;;;;5071571;28;20040;-77
2022/12/25 02:41:40;;;;;;;;;;;9.20;58.00;;;;;;5073074;28;20043;-77
2022/12/25 03:06:43;;;;;;;4.47;2.70;;;9.20;51.90;;;;;;5072155;28;20040;-77
2022/12/25 03:12:39;;;;;;;6.20;1.83;;;9.20;49.30;;;;;;5071196;28;20394;-76
2022/12/25 03:17:57;;;;;;;5.22;1.75;;;9.20;48.60;;;;;;5071140;28;20389;-77
2022/12/25 03:28:40;;;;;;;8.88;2.45;;;9.20;40.80;;;;;;5064293;28;20032;-77
2022/12/25 03:31:39;;;;;;;7.95;2.00;;;9.20;39.00;;;;;;5071283;28;20036;-75
2022/12/25 04:36:22;;;;;;;94.65;55.05;;;8.90;44.70;;;;;;5067648;28;20032;-77
2022/12/25 04:38:48;;;;;;;33.92;20.58;;;8.90;45.60;;;;;;5073494;28;20037;-77
2022/12/25 04:41:14;;;;;;;34.85;21.52;;;8.90;46.30;;;;;;5074200;28;20037;-77
2022/12/25 04:43:41;;;;;;;75.35;43.03;;;8.90;47.00;;;;;;5056960;28;20039;-77
2022/12/25 04:46:07;;;;;;;67.68;38.83;;;9.00;47.10;;;;;;5074255;28;20036;-76
2022/12/25 04:48:35;;;;;;;105.47;61.45;;;9.00;46.40;;;;;;5073143;28;20473;-77
2022/12/25 04:51:12;;;;;;;58.88;34.38;;;9.00;45.90;;;;;;5074735;28;20035;-77
2022/12/25 04:53:38;;;;;;;18.63;11.05;;;9.10;44.80;;;;;;5074532;28;20033;-74
2022/12/25 04:56:05;;;;;;;17.67;9.50;;;9.00;42.40;;;;;;5074736;28;20381;-75
2022/12/25 04:58:31;;;;;;;28.27;15.75;;;9.10;42.80;;;;;;5072782;28;20147;-74
2022/12/25 05:01:01;;;;;;;64.70;35.55;;;9.20;40.50;;;;;;5073768;28;20466;-75
2022/12/25 05:03:28;;;;;;;75.80;44.83;;;9.10;37.70;;;;;;5073569;28;20036;-75
2022/12/25 05:05:54;;;;;;;122.53;71.85;;;9.20;35.60;;;;;;5074387;28;20032;-74
2022/12/25 05:08:21;;;;;;;60.08;36.70;;;9.20;34.40;;;;;;5072216;28;20036;-74
2022/12/25 05:10:48;;;;;;;94.22;55.25;;;9.20;33.10;;;;;;5074283;28;20032;-75
2022/12/25 05:13:14;;;;;;;30.23;17.27;;;9.20;32.00;;;;;;5073105;28;20028;-75
2022/12/25 05:15:41;;;;;;;72.57;46.00;;;9.20;30.90;;;;;;5073881;28;20041;-75
2022/12/25 05:18:08;;;;;;;48.35;28.85;;;9.30;30.30;;;;;;5072118;28;20111;-73
2022/12/25 05:20:35;;;;;;;126.65;72.38;;;9.20;30.30;;;;;;5073560;28;20033;-75
2022/12/25 05:23:01;;;;;;;69.18;40.58;;;9.30;30.20;;;;;;5073924;28;20039;-75
2022/12/25 05:25:27;;;;;;;86.45;46.92;;;9.30;29.50;;;;;;5073016;28;20676;-75
2022/12/25 05:27:54;;;;;;;52.42;30.48;;;9.30;28.50;;;;;;5073595;28;20393;-75
2022/12/25 05:30:20;;;;;;;28.95;15.38;;;9.30;28.00;;;;;;5072684;28;20039;-75
2022/12/25 05:32:46;;;;;;;22.00;13.15;;;9.30;27.70;;;;;;5073749;28;20032;-75
2022/12/25 05:35:13;;;;;;;13.18;8.07;;;9.30;26.90;;;;;;5072659;28;20413;-75
2022/12/25 05:37:39;;;;;;;50.85;36.20;;;9.40;26.20;;;;;;5073544;28;20025;-75
2022/12/25 05:40:06;;;;;;;17.65;11.85;;;9.40;26.30;;;;;;5072713;28;20029;-75
2022/12/25 05:42:33;;;;;;;24.15;16.33;;;9.40;25.30;;;;;;5072780;28;20040;-75
2022/12/25 05:44:59;;;;;;;20.65;10.32;;;9.40;24.30;;;;;;5073973;28;20036;-75
2022/12/25 05:47:25;;;;;;;14.80;9.85;;;9.40;23.40;;;;;;5072667;28;20480;-75
2022/12/25 05:49:51;;;;;;;12.32;7.90;;;9.40;22.70;;;;;;5072520;28;20040;-75
2022/12/25 05:52:17;;;;;;;5.95;3.72;;;9.40;22.30;;;;;;5072547;28;20032;-75
2022/12/25 05:54:44;;;;;;;8.40;3.47;;;9.40;22.30;;;;;;5073222;28;20041;-75
2022/12/25 05:57:10;;;;;;;11.00;4.38;;;9.40;21.80;;;;;;5072835;28;20028;-73
2022/12/25 05:59:36;;;;;;;6.35;3.83;;;9.40;21.30;;;;;;5072963;28;20381;-74
2022/12/25 06:02:02;;;;;;;7.85;4.60;;;9.40;21.20;;;;;;5073568;28;20381;-74
2022/12/25 06:04:28;;;;;;;32.22;18.25;;;9.40;21.80;;;;;;5072553;28;20033;-74
2022/12/25 06:06:54;;;;;;;11.73;5.00;;;9.40;21.90;;;;;;5073086;28;20028;-74
2022/12/25 06:09:20;;;;;;;10.15;4.63;;;9.50;20.60;;;;;;5078641;28;20028;-75
2022/12/25 06:11:47;;;;;;;6.95;2.70;;;9.50;19.80;;;;;;5078523;28;20047;-75
2022/12/25 06:14:15;;;;;;;5.57;2.72;;;9.50;19.90;;;;;;5072913;28;20040;-74
2022/12/25 06:16:41;;;;;;;4.13;2.38;;;9.40;20.30;;;;;;5072992;28;20048;-74
2022/12/25 06:19:07;;;;;;;6.57;2.45;;;9.50;19.20;;;;;;5070610;28;20036;-74
2022/12/25 06:21:33;;;;;;;4.75;2.78;;;9.50;18.00;;;;;;5071683;28;20043;-75
2022/12/25 06:24:00;;;;;;;3.67;2.20;;;9.50;16.70;;;;;;5072962;28;20036;-75
2022/12/25 06:26:26;;;;;;;4.22;2.63;;;9.50;15.40;;;;;;5072195;28;20036;-75
2022/12/25 06:28:53;;;;;;;4.82;2.22;;;9.50;15.80;;;;;;5071681;28;20040;-75
2022/12/25 06:31:21;;;;;;;5.95;1.98;;;9.50;16.20;;;;;;5072050;28;20029;-75
2022/12/25 06:33:48;;;;;;;7.18;2.40;;;9.60;16.80;;;;;;5071337;28;20048;-75
2022/12/25 06:36:16;;;;;;;5.00;2.55;;;9.50;17.60;;;;;;5071837;28;20054;-73
2022/12/25 06:38:43;;;;;;;8.02;4.97;;;9.50;18.60;;;;;;5071439;28;20186;-74
2022/12/25 06:41:18;;;;;;;10.23;4.55;;;9.50;19.50;;;;;;5054671;28;20028;-74
2022/12/25 06:43:55;;;;;;;11.80;4.00;;;9.40;20.30;;;;;;5072521;28;20063;-74
2022/12/25 06:46:23;;;;;;;8.63;3.78;;;9.40;21.90;;;;;;5071326;28;20493;-74
2022/12/25 06:48:50;;;;;;;7.78;4.50;;;9.40;22.60;;;;;;5071151;28;20029;-75
2022/12/25 06:51:18;;;;;;;8.23;3.70;;;9.40;24.30;;;;;;5071477;28;20032;-74
2022/12/25 06:53:46;;;;;;;4.65;2.90;;;9.40;25.60;;;;;;5072183;28;20103;-75
2022/12/25 06:56:15;;;;;;;7.25;3.05;;;9.30;26.90;;;;;;5071807;28;20032;-74
2022/12/25 06:58:46;;;;;;;7.47;3.55;;;9.30;27.80;;;;;;5070856;28;20025;-74
2022/12/25 07:01:25;;;;;;;7.63;2.97;;;9.30;29.30;;;;;;5071734;28;20028;-73
2022/12/25 07:03:56;;;;;;;5.50;2.20;;;9.30;31.20;;;;;;5072230;28;20040;-74
2022/12/25 07:06:23;;;;;;;5.22;3.13;;;9.40;29.50;;;;;;5071425;28;20394;-75
2022/12/25 07:08:49;;;;;;;8.20;3.95;;;9.40;28.30;;;;;;5071027;28;20033;-75
2022/12/25 07:11:15;;;;;;;5.03;2.95;;;9.40;28.70;;;;;;5070676;28;20052;-73
2022/12/25 07:13:41;;;;;;;5.40;2.83;;;9.30;29.90;;;;;;5072393;28;20040;-75
2022/12/25 07:16:10;;;;;;;4.72;3.15;;;9.40;30.40;;;;;;5071591;28;20048;-75
2022/12/25 07:18:36;;;;;;;5.13;2.90;;;9.40;29.70;;;;;;5069866;28;20036;-75
2022/12/25 07:21:14;;;;;;;6.45;2.83;;;9.40;29.30;;;;;;5071900;28;20036;-75
2022/12/25 07:23:43;;;;;;;10.98;3.78;;;9.40;29.80;;;;;;5071415;28;20091;-74
2022/12/25 07:26:11;;;;;;;4.95;2.72;;;9.40;30.50;;;;;;5072112;28;20029;-75
2022/12/25 07:28:37;;;;;;;9.43;3.35;;;9.30;30.20;;;;;;5069661;28;20047;-74
2022/12/25 07:31:10;;;;;;;9.05;5.43;;;9.40;30.10;;;;;;5071505;28;20033;-74
2022/12/25 07:33:36;;;;;;;8.40;3.80;;;9.30;29.90;;;;;;5070144;28;20032;-74
2022/12/25 07:36:04;;;;;;;4.95;2.95;;;9.30;30.90;;;;;;5071760;28;20454;-74
2022/12/25 07:38:31;;;;;;;6.78;2.80;;;9.30;32.10;;;;;;5068927;28;20045;-74
2022/12/25 07:40:57;;;;;;;7.95;3.28;;;9.30;33.90;;;;;;5070947;28;20489;-74
2022/12/25 07:43:24;;;;;;;5.38;2.83;;;9.30;37.50;;;;;;5070667;28;20055;-74
2022/12/25 07:45:54;;;;;;;8.35;2.78;;;9.30;40.90;;;;;;5071797;28;20359;-74
2022/12/25 07:48:20;;;;;;;8.10;3.08;;;9.30;44.10;;;;;;5068545;28;20029;-73
2022/12/25 07:50:46;;;;;;;6.78;2.83;;;9.20;44.40;;;;;;5057698;28;20032;-75
2022/12/25 07:53:12;;;;;;;8.25;4.32;;;9.30;42.70;;;;;;5071295;28;20040;-75
2022/12/25 07:55:39;;;;;;;8.38;3.35;;;9.30;41.60;;;;;;5053311;28;20044;-75
2022/12/25 07:58:05;;;;;;;6.65;3.40;;;9.30;42.90;;;;;;5071717;28;20457;-75
2022/12/25 08:00:31;;;;;;;6.55;3.78;;;9.30;44.60;;;;;;5069818;28;20035;-75
2022/12/25 08:02:58;;;;;;;7.38;2.97;;;9.30;45.80;;;;;;5070923;28;20040;-75
2022/12/25 08:05:25;;;;;;;5.60;3.38;;;9.30;48.40;;;;;;5070273;28;20036;-75
2022/12/25 08:07:55;;;;;;;5.32;2.95;;;9.30;50.20;;;;;;5070621;28;20067;-75
2022/12/25 08:10:21;;;;;;;6.40;3.17;;;9.30;50.50;;;;;;5069057;28;20045;-75
2022/12/25 08:12:47;;;;;;;9.40;5.55;;;9.30;48.50;;;;;;5053490;28;20080;-76
2022/12/25 08:15:13;;;;;;;10.85;5.25;;;9.40;47.10;;;;;;5071222;28;20045;-75
2022/12/25 08:17:39;;;;;;;7.18;4.03;;;9.40;43.90;;;;;;5070237;28;20052;-76
2022/12/25 08:20:07;;;;;;;7.20;3.83;;;9.50;38.30;;;;;;5070528;28;20033;-76
2022/12/25 08:22:33;;;;;;;6.57;3.63;;;9.50;33.70;;;;;;5063724;28;20389;-75
2022/12/25 08:24:59;;;;;;;9.02;3.55;;;9.60;28.50;;;;;;5071282;28;20040;-75
2022/12/25 08:27:25;;;;;;;6.50;3.22;;;9.60;25.60;;;;;;5052419;28;20049;-75
2022/12/25 08:29:51;;;;;;;6.20;3.15;;;9.60;26.80;;;;;;5069749;28;20363;-76
2022/12/25 08:32:17;;;;;;;4.85;3.28;;;9.60;26.60;;;;;;5063824;28;20032;-74
2022/12/25 08:34:43;;;;;;;8.25;3.55;;;9.70;26.20;;;;;;5071128;28;20036;-76
2022/12/25 08:37:09;;;;;;;5.93;3.20;;;9.60;27.10;;;;;;5070240;28;20036;-76
2022/12/25 08:39:36;;;;;;;7.13;3.08;;;9.60;26.90;;;;;;5069116;28;20033;-74
2022/12/25 08:42:02;;;;;;;5.63;3.45;;;9.60;27.10;;;;;;5069985;28;20393;-74
2022/12/25 08:44:28;;;;;;;6.15;3.15;;;9.60;26.60;;;;;;5071124;28;20389;-77
2022/12/25 08:46:54;;;;;;;7.72;3.10;;;9.70;27.30;;;;;;5057361;28;20398;-76
2022/12/25 08:49:20;;;;;;;5.35;2.83;;;9.70;25.90;;;;;;5074036;28;20032;-74
2022/12/25 08:51:47;;;;;;;7.00;2.97;;;9.80;24.10;;;;;;5073907;28;20035;-77
2022/12/25 08:54:13;;;;;;;8.35;4.60;;;9.80;25.30;;;;;;5056684;28;20048;-76
2022/12/25 08:56:39;;;;;;;5.85;3.55;;;9.90;25.20;;;;;;5073362;28;20032;-76
2022/12/25 08:59:05;;;;;;;6.20;3.42;;;9.80;25.40;;;;;;5074044;28;20028;-76
2022/12/25 09:01:31;;;;;;;10.98;4.03;;;9.90;25.90;;;;;;5072532;28;20033;-76
2022/12/25 09:03:57;;;;;;;7.47;3.85;;;9.90;23.20;;;;;;5074124;28;20028;-76
2022/12/25 09:06:24;;;;;;;5.25;3.40;;;10.00;20.80;;;;;;5073552;28;20466;-77
2022/12/25 09:08:50;;;;;;;7.30;3.60;;;10.00;17.80;;;;;;5074769;28;20405;-78
2022/12/25 09:11:18;;;;;;;6.60;3.72;;;10.00;17.70;;;;;;5073357;28;20040;-76
2022/12/25 09:13:44;;;;;;;10.27;4.22;;;10.00;18.30;;;;;;5073634;28;20044;-77
2022/12/25 09:16:13;;;;;;;6.70;3.75;;;10.00;17.80;;;;;;5073965;28;20142;-77
2022/12/25 09:18:39;;;;;;;6.70;4.13;;;10.10;17.00;;;;;;5073646;28;20037;-77
2022/12/25 09:21:08;;;;;;;8.38;3.50;;;10.10;18.00;;;;;;5055030;28;20032;-76
2022/12/25 09:23:35;;;;;;;7.60;3.50;;;10.20;17.40;;;;;;5055306;28;20044;-76
2022/12/25 09:26:04;;;;;;;6.63;3.17;;;10.20;13.70;;;;;;5055956;28;20048;-76
2022/12/25 09:28:31;;;;;;;6.03;3.10;;;10.20;12.80;;;;;;5073444;28;20040;-77
2022/12/25 09:30:57;;;;;;;7.53;3.05;;;10.20;13.00;;;;;;5072828;28;20040;-77
2022/12/25 09:33:24;;;;;;;4.22;2.40;;;10.30;11.80;;;;;;5072300;28;20032;-76
2022/12/25 09:35:55;;;;;;;16.52;8.60;;;10.30;7.10;;;;;;5073700;28;20036;-75
2022/12/25 09:38:22;;;;;;;15.77;9.95;;;10.30;5.30;;;;;;5073569;28;20028;-74
2022/12/25 09:41:01;;;;;;;50.10;29.25;;;10.40;3.40;;;;;;5072880;28;20457;-76
2022/12/25 09:43:30;;;;;;;18.33;16.42;;;10.50;3.00;;;;;;5072925;28;20032;-75
2022/12/25 09:45:59;;;;;;;7.10;4.82;;;10.50;1.00;;;;;;5072994;28;20045;-75
2022/12/25 09:48:27;;;;;;;14.43;7.50;;;10.60;1.00;;;;;;5072856;28;20040;-74
2022/12/25 09:51:01;;;;;;;30.48;16.92;;;10.70;1.00;;;;;;5068428;28;20025;-74
2022/12/25 09:53:36;;;;;;;7.47;4.40;;;10.90;1.00;;;;;;5072253;28;20028;-74
2022/12/25 09:56:14;;;;;;;5.53;3.72;;;11.10;1.00;;;;;;5072035;28;20040;-75
2022/12/25 09:58:40;;;;;;;6.13;2.58;;;11.30;1.00;;;;;;5073025;28;20040;-74
2022/12/25 10:01:39;;;;;;;7.22;3.63;;;11.30;1.00;;;;;;5068022;28;20029;-74
2022/12/25 10:04:24;;;;;;;3.85;1.92;;;11.30;1.00;;;;;;5056649;28;20060;-74
2022/12/25 10:07:20;;;;;;;3.38;2.03;;;11.40;1.00;;;;;;5067253;28;20465;-74
2022/12/25 10:10:11;;;;;;;5.75;2.75;;;11.50;1.00;;;;;;5071514;28;20043;-75
2022/12/25 10:12:49;;;;;;;;;;;11.60;1.00;;;;;;5073321;28;20103;-75
2022/12/25 10:15:27;;;;;;;4.85;1.60;;;11.60;1.00;;;;;;5073332;28;19912;-75
2022/12/25 10:18:24;;;;;;;5.75;1.85;;;11.80;1.00;;;;;;5068334;28;20047;-75
2022/12/25 10:20:52;;;;;;;5.32;2.20;;;11.80;1.00;;;;;;5063799;28;20033;-75
2022/12/25 10:23:24;;;;;;;4.60;2.03;;;12.00;1.00;;;;;;5053270;28;20029;-76
2022/12/25 10:25:52;;;;;;;5.00;3.15;;;12.10;1.00;;;;;;5069995;28;20037;-75
2022/12/25 10:28:27;;;;;;;5.38;2.50;;;12.10;1.00;;;;;;5073489;28;20056;-75
2022/12/25 10:30:54;;;;;;;3.58;1.77;;;12.10;1.00;;;;;;5054351;28;20146;-76
2022/12/25 10:33:20;;;;;;;3.55;2.17;;;12.10;1.00;;;;;;5063932;28;20039;-76
2022/12/25 10:35:46;;;;;;;5.15;1.30;;;12.20;1.00;;;;;;5080416;28;20041;-76
2022/12/25 10:38:16;;;;;;;5.03;2.30;;;12.30;1.00;;;;;;5073551;28;20035;-76
2022/12/25 10:41:01;;;;;;;2.90;1.58;;;12.40;1.00;;;;;;5066645;28;20045;-76
2022/12/25 10:43:41;;;;;;;1.90;1.17;;;12.30;1.00;;;;;;5072394;28;20040;-76
2022/12/25 10:46:14;;;;;;;4.22;1.65;;;12.40;1.00;;;;;;5052267;28;20048;-76
2022/12/25 10:48:53;;;;;;;2.92;1.45;;;12.50;1.00;;;;;;5068586;28;20043;-76
2022/12/25 10:51:32;;;;;;;3.22;1.55;;;12.30;1.00;;;;;;5052927;28;20029;-76
2022/12/25 10:54:00;;;;;;;5.45;2.92;;;12.20;1.00;;;;;;5072401;28;20035;-76
2022/12/25 10:56:26;;;;;;;9.60;4.25;;;12.20;1.00;;;;;;5071774;28;20389;-75
2022/12/25 10:59:06;;;;;;;4.57;3.00;;;12.10;1.00;;;;;;5065962;28;20035;-76
2022/12/25 11:01:32;;;;;;;4.97;2.00;;;12.10;1.00;;;;;;5069079;28;20044;-76
2022/12/25 11:03:59;;;;;;;4.97;2.55;;;12.10;1.00;;;;;;5072081;28;20271;-76
2022/12/25 11:06:28;;;;;;;3.20;2.08;;;12.00;1.00;;;;;;5071905;28;20044;-75
2022/12/25 11:08:58;;;;;;;4.47;2.22;;;12.00;1.00;;;;;;5072313;28;20025;-77
2022/12/25 11:11:26;;;;;;;4.68;1.77;;;12.00;1.00;;;;;;5055312;28;20335;-75
2022/12/25 11:13:59;;;;;;;5.05;2.17;;;12.10;1.00;;;;;;5068936;28;20036;-76
2022/12/25 11:16:33;;;;;;;3.50;2.17;;;12.10;1.00;;;;;;5065692;28;20387;-75
2022/12/25 11:18:59;;;;;;;5.00;1.50;;;12.20;1.00;;;;;;5066453;28;20032;-76
2022/12/25 11:21:31;;;;;;;5.03;1.83;;;12.20;1.00;;;;;;5071219;28;20377;-75
2022/12/25 11:24:01;;;;;;;5.50;2.22;;;12.30;1.00;;;;;;5071987;28;20032;-76
2022/12/25 11:26:29;;;;;;;4.63;1.77;;;12.20;1.00;;;;;;5071489;28;20040;-75
2022/12/25 11:28:56;;;;;;;4.38;1.77;;;12.20;1.00;;;;;;5071779;28;20032;-76
2022/12/25 11:31:35;;;;;;;4.03;1.60;;;12.20;1.00;;;;;;5053588;28;20036;-76
2022/12/25 11:34:09;;;;;;;6.47;3.15;;;12.20;1.00;;;;;;5071617;28;20342;-76
2022/12/25 11:36:47;;;;;;;6.28;3.33;;;12.20;1.00;;;;;;5070779;28;20036;-75
2022/12/25 11:39:22;;;;;;;4.40;2.35;;;12.20;1.00;;;;;;5053931;28;20043;-76
2022/12/25 11:41:52;;;;;;;6.43;4.32;;;12.10;1.00;;;;;;5069807;28;20028;-76
2022/12/25 11:44:37;;;;;;;8.27;5.22;;;12.10;1.00;;;;;;5071348;28;20044;-76
2022/12/25 11:47:13;;;;;;;5.88;3.22;;;12.20;1.00;;;;;;5070252;28;20036;-76
2022/12/25 11:49:49;;;;;;;15.73;9.90;;;12.20;1.00;;;;;;5071111;28;20028;-76
2022/12/25 11:52:18;;;;;;;16.52;10.20;;;12.20;1.00;;;;;;5063704;28;20032;-75
2022/12/25 11:54:58;;;;;;;12.50;7.05;;;12.30;1.00;;;;;;5060760;28;20218;-76
2022/12/25 11:57:29;;;;;;;24.13;14.77;;;12.30;1.00;;;;;;5072097;28;20040;-75
2022/12/25 12:00:03;;;;;;;16.38;9.07;;;12.50;1.00;;;;;;5071930;28;20271;-78
2022/12/25 12:02:52;;;;;;;13.20;7.30;;;12.50;1.00;;;;;;5077179;28;20047;-76
2022/12/25 12:05:24;;;;;;;7.13;5.20;;;12.50;1.00;;;;;;5070287;28;20473;-77
2022/12/25 12:07:59;;;;;;;4.50;2.05;;;12.60;1.00;;;;;;5070976;28;20454;-77
2022/12/25 12:10:36;;;;;;;13.82;6.88;;;12.70;1.00;;;;;;5046861;28;20047;-76
2022/12/25 12:13:10;;;;;;;6.28;3.50;;;12.90;1.00;;;;;;5071804;28;20029;-78
2022/12/25 12:15:43;;;;;;;17.35;12.80;;;12.90;1.00;;;;;;5070762;28;20469;-76
2022/12/25 12:18:24;;;;;;;7.72;4.60;;;13.10;1.00;;;;;;5071209;28;20079;-76
2022/12/25 12:21:04;;;;;;;6.25;4.07;;;13.00;1.00;;;;;;5072160;28;20039;-77
2022/12/25 12:23:53;;;;;;;6.20;3.55;;;13.00;1.00;;;;;;5074424;28;20032;-75
2022/12/25 12:26:25;;;;;;;5.63;3.58;;;13.00;1.00;;;;;;5072897;28;20040;-77
2022/12/25 12:28:56;;;;;;;5.47;3.63;;;12.90;1.00;;;;;;5056593;28;20037;-76
2022/12/25 12:31:23;;;;;;;6.65;3.47;;;12.80;1.00;;;;;;5074349;28;20370;-77
2022/12/25 12:33:52;;;;;;;7.70;5.32;;;12.70;1.00;;;;;;5074317;28;20028;-77
2022/12/25 12:36:21;;;;;;;8.15;4.05;;;12.70;1.00;;;;;;5074722;28;20033;-77
2022/12/25 12:38:49;;;;;;;6.47;3.55;;;12.70;1.00;;;;;;5067658;28;20147;-77
2022/12/25 12:41:16;;;;;;;6.75;3.83;;;12.90;1.00;;;;;;5073403;28;20043;-77
2022/12/25 12:43:53;;;;;;;4.20;2.60;;;13.10;1.00;;;;;;5073902;28;20028;-77
2022/12/25 12:46:21;;;;;;;7.22;2.92;;;13.20;1.00;;;;;;5074973;28;20043;-75
2022/12/25 12:48:51;;;;;;;4.20;2.47;;;13.30;1.00;;;;;;5073838;28;20032;-78
2022/12/25 12:51:36;;;;;;;3.28;1.95;;;13.40;1.00;;;;;;5055744;28;20047;-76
2022/12/25 12:54:22;;;;;;;3.00;1.63;;;13.40;1.00;;;;;;5074768;28;20037;-75
2022/12/25 12:57:06;;;;;;;2.47;1.42;;;13.30;1.00;;;;;;5073408;28;20116;-75
2022/12/25 12:59:45;;;;;;;2.65;1.42;;;13.20;1.00;;;;;;5073815;28;20470;-76
2022/12/25 13:02:21;;;;;;;3.58;1.75;;;13.20;1.00;;;;;;5056530;28;20473;-75
2022/12/25 13:04:59;;;;;;;3.30;1.38;;;13.20;1.00;;;;;;5074636;28;20033;-76
2022/12/25 13:07:25;;;;;;;3.67;1.92;;;13.20;1.00;;;;;;5074533;28;20099;-78
2022/12/25 13:10:09;;;;;;;3.20;1.60;;;13.20;1.00;;;;;;5073437;28;20028;-75
2022/12/25 13:12:36;;;;;;;4.10;2.13;;;13.30;1.00;;;;;;5072449;28;20489;-77
2022/12/25 13:15:02;;;;;;;15.10;10.32;;;13.30;1.00;;;;;;5074309;28;20044;-78
2022/12/25 13:17:29;;;;;;;102.43;59.17;;;13.30;1.00;;;;;;5074366;28;20044;-77
2022/12/25 13:19:58;;;;;;;119.63;67.80;;;13.20;1.00;;;;;;5073210;28;20461;-77
2022/12/25 13:22:35;;;;;;;20.95;10.75;;;13.20;1.00;;;;;;5054957;28;20024;-77
2022/12/25 13:25:06;;;;;;;14.95;8.00;;;13.30;1.00;;;;;;5073817;28;20040;-78
2022/12/25 13:27:32;;;;;;;26.48;16.75;;;13.20;1.00;;;;;;5055595;28;20037;-74
2022/12/25 13:29:59;;;;;;;9.57;4.93;;;13.20;1.00;;;;;;5055242;28;20037;-78
2022/12/25 13:32:28;;;;;;;3.45;2.47;;;13.20;1.00;;;;;;5071438;28;20036;-78
2022/12/25 13:34:55;;;;;;;3.25;2.40;;;13.20;1.00;;;;;;5073163;28;20036;-78
2022/12/25 13:37:24;;;;;;;4.22;1.98;;;13.10;1.00;;;;;;5073460;28;20024;-77
2022/12/25 13:39:56;;;;;;;2.65;1.42;;;13.10;1.00;;;;;;5069621;28;20029;-76
2022/12/25 13:42:38;;;;;;;2.42;1.48;;;13.10;1.00;;;;;;5054542;28;20037;-77
2022/12/25 13:45:12;;;;;;;3.10;1.30;;;13.10;1.00;;;;;;5072163;28;20421;-76
2022/12/25 13:47:41;;;;;;;2.78;1.38;;;13.10;1.00;;;;;;5051006;28;20032;-77
2022/12/25 13:50:25;;;;;;;2.03;1.17;;;13.10;1.00;;;;;;5071883;28;20040;-77
2022/12/25 13:52:52;;;;;;;3.20;1.35;;;13.00;1.00;;;;;;5070007;28;20048;-76
2022/12/25 13:55:23;;;;;;;3.67;1.60;;;13.00;1.00;;;;;;5071666;28;20036;-76
2022/12/25 13:57:57;;;;;;;3.70;2.30;;;13.00;1.00;;;;;;5071222;28;20124;-76
2022/12/25 14:00:33;;;;;;;2.97;1.75;;;13.00;1.00;;;;;;5066049;28;20040;-77
2022/12/25 14:03:00;;;;;;;3.00;1.98;;;12.90;1.00;;;;;;5061882;28;20039;-76
2022/12/25 14:05:32;;;;;;;4.85;2.33;;;12.90;1.00;;;;;;5067409;28;20041;-76
2022/12/25 14:08:02;;;;;;;4.32;2.40;;;12.90;1.00;;;;;;5067631;28;20763;-75
2022/12/25 14:10:34;;;;;;;3.83;2.20;;;12.90;1.00;;;;;;5065785;28;20395;-75
2022/12/25 14:13:04;;;;;;;5.93;2.30;;;12.90;1.00;;;;;;5065362;28;20044;-76
2022/12/25 14:15:32;;;;;;;4.70;2.20;;;12.90;1.00;;;;;;5066015;28;20065;-75
2022/12/25 14:17:59;;;;;;;4.93;2.10;;;12.90;1.00;;;;;;5062976;28;20045;-76
2022/12/25 14:20:29;;;;;;;5.75;2.85;;;12.90;1.00;;;;;;5051016;28;20044;-76
2022/12/25 14:22:58;;;;;;;3.45;1.60;;;13.00;1.00;;;;;;5067652;28;20206;-76
2022/12/25 14:25:39;;;;;;;3.00;2.10;;;13.10;1.00;;;;;;5068544;28;20056;-76
2022/12/25 14:28:08;;;;;;;3.45;1.83;;;13.20;1.00;;;;;;5063611;28;20496;-75
2022/12/25 14:30:35;;;;;;;2.85;1.80;;;13.20;1.00;;;;;;5066696;28;20112;-74
2022/12/25 14:33:01;;;;;;;2.88;1.83;;;13.30;1.00;;;;;;5061964;28;20411;-76
2022/12/25 14:35:27;;;;;;;3.60;2.42;;;13.30;1.00;;;;;;5065732;28;20047;-75
2022/12/25 14:37:58;;;;;;;3.20;2.03;;;13.30;1.00;;;;;;5068592;28;20554;-75
2022/12/25 14:40:31;;;;;;;;;;;13.20;1.00;;;;;;5065037;28;20041;-75
2022/12/25 14:43:22;;;;;;;3.58;2.05;;;13.10;1.00;;;;;;5067463;28;19979;-75
2022/12/25 14:45:56;;;;;;;2.83;1.73;;;13.10;1.00;;;;;;5064676;28;20036;-75
2022/12/25 14:48:27;;;;;;;4.93;2.25;;;13.00;1.00;;;;;;5050925;28;20039;-76
2022/12/25 14:51:07;;;;;;;3.22;1.90;;;13.00;1.00;;;;;;5065586;28;20457;-76
2022/12/25 14:53:44;;;;;;;3.03;2.13;;;13.00;1.00;;;;;;5067225;28;20044;-76